Time;durP1;ratioP1;P1;durP2;ratioP2;P2;SDS_P1;SDS_P2;PMS_P1;PMS_P2;Temp;Humidity;BMP_temperature;BMP_pressure;BME280_temperature;BME280_humidity;BME280_pressure;Samples;Min_cycle;Max_cycle;Signal;HPM_P1;HPM_P2
2022/09/25 00:01:36;;;;;;;1.60;1.50;;;;;;;11.75;100.00;95472.63;4969994;28;20027;-65
2022/09/25 00:04:02;;;;;;;2.05;1.55;;;;;;;11.77;100.00;95473.28;4962628;28;20023;-69
2022/09/25 00:06:29;;;;;;;2.13;1.45;;;;;;;11.86;100.00;95466.25;4963705;28;20030;-70
2022/09/25 00:08:55;;;;;;;1.50;1.50;;;;;;;11.86;100.00;95466.25;4968441;28;20018;-69
2022/09/25 00:11:24;;;;;;;1.40;1.40;;;;;;;11.86;100.00;95471.53;4968285;28;20019;-70
2022/09/25 00:13:50;;;;;;;1.70;1.60;;;;;;;11.85;100.00;95478.63;4967672;28;20031;-70
2022/09/25 00:16:19;;;;;;;1.30;1.30;;;;;;;11.87;100.00;95463.47;4962885;28;20052;-69
2022/09/25 00:21:31;;;;;;;1.50;1.40;;;;;;;11.79;100.00;95467.84;4966007;28;20165;-68
2022/09/25 00:24:02;;;;;;;1.40;1.30;;;;;;;11.81;100.00;95460.59;4967608;28;20027;-66
2022/09/25 00:26:29;;;;;;;1.80;1.70;;;;;;;11.80;100.00;95467.72;4968773;28;20106;-66
2022/09/25 00:28:55;;;;;;;1.83;1.33;;;;;;;11.79;100.00;95452.88;4968340;28;20022;-66
2022/09/25 00:31:23;;;;;;;2.55;1.75;;;;;;;11.77;100.00;95448.72;4964278;28;20512;-66
2022/09/25 00:33:52;;;;;;;1.52;1.50;;;;;;;11.75;100.00;95444.44;4963418;28;20101;-66
2022/09/25 00:36:17;;;;;;;1.70;1.60;;;;;;;11.77;100.00;95438.16;4969709;28;20057;-66
2022/09/25 00:38:47;;;;;;;1.55;1.45;;;;;;;11.76;100.00;95429.44;4968707;28;20055;-68
2022/09/25 00:41:15;;;;;;;1.77;1.30;;;;;;;11.74;100.00;95421.69;4969622;28;20019;-62
2022/09/25 00:43:43;;;;;;;3.13;1.52;;;;;;;11.72;100.00;95422.84;4968481;28;20642;-61
2022/09/25 00:46:33;;;;;;;1.60;1.50;;;;;;;11.71;100.00;95419.34;4964155;28;20043;-61
2022/09/25 00:49:04;;;;;;;1.75;1.25;;;;;;;11.72;100.00;95421.00;4962929;28;20032;-61
2022/09/25 00:51:40;;;;;;;3.22;1.40;;;;;;;11.72;100.00;95412.28;4968681;28;20081;-61
2022/09/25 00:54:09;;;;;;;1.90;1.35;;;;;;;11.72;100.00;95404.38;4965711;28;20754;-61
2022/09/25 00:56:40;;;;;;;2.35;1.42;;;;;;;11.69;100.00;95402.03;4965223;28;20118;-61
2022/09/25 00:59:13;;;;;;;1.80;1.70;;;;;;;11.66;100.00;95390.00;4964550;28;20481;-64
2022/09/25 01:01:38;;;;;;;1.33;1.33;;;;;;;11.68;100.00;95381.91;4968316;28;20500;-69
2022/09/25 01:04:05;;;;;;;1.30;1.20;;;;;;;11.70;100.00;95386.06;4964871;28;20078;-69
2022/09/25 01:06:31;;;;;;;1.75;1.30;;;;;;;11.68;100.00;95381.91;4968077;28;20058;-69
2022/09/25 01:08:58;;;;;;;1.95;1.70;;;;;;;11.70;100.00;95380.78;4962179;28;20031;-69
2022/09/25 01:11:23;;;;;;;2.85;1.70;;;;;;;11.70;100.00;95378.16;4968076;28;20113;-69
2022/09/25 01:13:53;;;;;;;1.20;1.20;;;;;;;11.65;100.00;95377.78;4965845;28;20106;-69
2022/09/25 01:16:41;;;;;;;5.07;1.42;;;;;;;11.60;100.00;95372.97;4971051;28;20030;-69
2022/09/25 01:19:25;;;;;;;1.90;1.63;;;;;;;11.60;100.00;95374.78;4960597;28;20051;-69
2022/09/25 01:21:59;;;;;;;1.67;1.52;;;;;;;11.62;100.00;95364.94;4954116;28;20034;-65
2022/09/25 01:24:49;;;;;;;2.40;1.70;;;;;;;11.60;100.00;95359.78;4961854;28;20030;-66
2022/09/25 01:27:39;;;;;;;2.38;1.77;;;;;;;11.60;100.00;95358.97;4966955;28;20027;-66
2022/09/25 01:30:10;;;;;;;5.72;3.25;;;;;;;11.62;100.00;95359.66;4967581;28;20721;-66
2022/09/25 01:32:55;;;;;;;4.28;3.30;;;;;;;11.59;100.00;95363.41;4965009;28;20405;-66
2022/09/25 01:35:27;;;;;;;2.50;2.30;;;;;;;11.56;100.00;95354.97;4965282;28;20031;-66
2022/09/25 01:38:05;;;;;;;1.13;1.10;;;;;;;11.53;100.00;95350.88;4963078;28;20023;-65
2022/09/25 01:40:36;;;;;;;4.55;2.42;;;;;;;11.51;100.00;95350.19;4963731;28;20451;-62
2022/09/25 01:43:13;;;;;;;1.30;1.30;;;;;;;11.49;100.00;95346.06;4965211;28;20042;-62
2022/09/25 01:45:50;;;;;;;1.67;1.20;;;;;;;11.49;100.00;95353.97;4965059;28;20034;-62
2022/09/25 01:48:20;;;;;;;1.17;1.13;;;;;;;11.45;100.00;95351.66;4963527;28;20379;-62
2022/09/25 01:50:57;;;;;;;3.17;1.10;;;;;;;11.41;100.00;95350.31;4967994;28;20066;-62
2022/09/25 01:53:26;;;;;;;1.45;1.40;;;;;;;11.37;100.00;95354.22;4954446;28;20031;-63
2022/09/25 01:55:58;;;;;;;1.30;1.30;;;;;;;11.34;100.00;95351.88;4964708;28;20027;-65
2022/09/25 01:58:29;;;;;;;1.17;1.10;;;;;;;11.38;100.00;95360.31;4956134;28;20118;-65
2022/09/25 02:01:08;;;;;;;2.83;1.13;;;;;;;11.46;100.00;95350.66;4966959;28;20026;-65
2022/09/25 02:03:43;;;;;;;5.15;1.40;;;;;;;11.50;100.00;95353.81;4962287;28;20110;-65
2022/09/25 02:06:15;;;;;;;1.75;1.20;;;;;;;11.51;100.00;95360.75;4962495;28;20039;-65
2022/09/25 02:08:46;;;;;;;2.95;1.67;;;;;;;11.51;100.00;95366.03;4965807;28;20119;-66
2022/09/25 02:11:13;;;;;;;1.73;1.63;;;;;;;11.49;100.00;95367.97;4967640;28;20436;-66
2022/09/25 02:13:52;;;;;;;1.50;1.50;;;;;;;11.45;100.00;95364.81;4964233;28;20058;-66
2022/09/25 02:16:42;;;;;;;1.75;1.65;;;;;;;11.42;100.00;95367.78;4963583;28;20023;-69
2022/09/25 02:21:58;;;;;;;2.60;1.67;;;;;;;11.43;100.00;95363.31;4957939;28;20034;-69
2022/09/25 02:24:32;;;;;;;3.50;1.67;;;;;;;11.40;100.00;95359.19;4964047;28;20058;-69
2022/09/25 02:26:57;;;;;;;2.55;1.90;;;;;;;11.41;100.00;95362.66;4960102;28;20023;-69
2022/09/25 02:29:23;;;;;;;3.00;2.00;;;;;;;11.41;100.00;95368.75;4970383;28;20034;-69
2022/09/25 02:32:20;;;;;;;2.10;2.00;;;;;;;11.41;100.00;95360.84;4967761;28;20019;-69
2022/09/25 02:34:46;;;;;;;1.80;1.70;;;;;;;11.39;100.00;95373.34;4945572;28;20039;-65
2022/09/25 02:37:14;;;;;;;4.18;2.00;;;;;;;11.40;100.00;95368.91;4967562;28;20097;-65
2022/09/25 02:39:42;;;;;;;2.10;2.00;;;;;;;11.43;100.00;95374.69;4966379;28;20571;-68
2022/09/25 02:42:28;;;;;;;1.70;1.60;;;;;;;11.45;100.00;95380.63;4971793;28;20034;-67
2022/09/25 02:45:19;;;;;;;1.77;1.67;;;;;;;11.46;100.00;95378.81;4967414;28;20121;-68
2022/09/25 02:47:59;;;;;;;1.77;1.67;;;;;;;11.45;100.00;95382.44;4961778;28;20386;-68
2022/09/25 02:50:48;;;;;;;3.50;1.63;;;;;;;11.43;100.00;95374.69;4967832;28;20050;-68
2022/09/25 02:53:41;;;;;;;1.60;1.50;;;;;;;11.40;100.00;95369.75;4968699;28;20039;-69
2022/09/25 02:56:32;;;;;;;2.80;1.30;;;;;;;11.40;100.00;95369.75;4968077;28;20033;-64
2022/09/25 02:59:05;;;;;;;2.50;2.30;;;;;;;11.38;100.00;95371.69;4967220;28;20016;-65
2022/09/25 03:01:34;;;;;;;3.42;2.50;;;;;;;11.44;100.00;95379.00;4969816;28;20022;-64
2022/09/25 03:04:00;;;;;;;2.25;2.10;;;;;;;11.39;100.00;95375.16;4969057;28;20023;-64
2022/09/25 03:06:27;;;;;;;4.43;2.00;;;;;;;11.39;100.00;95373.34;4969255;28;20101;-65
2022/09/25 03:08:56;;;;;;;1.95;1.85;;;;;;;11.43;100.00;95374.69;4971483;28;20027;-64
2022/09/25 03:11:25;;;;;;;2.10;1.90;;;;;;;11.34;100.00;95374.81;4970555;28;20035;-65
2022/09/25 03:14:02;;;;;;;2.72;2.30;;;;;;;11.32;100.00;95372.31;4966951;28;20058;-68
2022/09/25 03:16:33;;;;;;;5.82;2.78;;;;;;;11.30;100.00;95369.00;4969764;28;20027;-65
2022/09/25 03:18:59;;;;;;;5.47;2.17;;;;;;;11.36;100.00;95364.94;4971013;28;20042;-65
2022/09/25 03:21:25;;;;;;;2.25;1.80;;;;;;;11.30;100.00;95366.38;4968721;28;20497;-65
2022/09/25 03:23:50;;;;;;;3.88;1.40;;;;;;;11.23;100.00;95367.97;4967817;28;20065;-65
2022/09/25 03:26:15;;;;;;;1.48;1.38;;;;;;;11.24;100.00;95380.97;4971046;28;20031;-65
2022/09/25 03:28:41;;;;;;;1.63;1.30;;;;;;;11.18;100.00;95374.53;4967579;28;20382;-65
2022/09/25 03:31:09;;;;;;;2.60;1.50;;;;;;;11.17;100.00;95372.03;4971907;28;20031;-65
2022/09/25 03:33:37;;;;;;;3.38;1.60;;;;;;;11.20;100.00;95358.56;4966904;28;20503;-63
2022/09/25 03:36:14;;;;;;;1.30;1.30;;;;;;;11.17;100.00;95364.97;4970513;28;20031;-65
2022/09/25 03:38:40;;;;;;;2.78;1.60;;;;;;;11.16;100.00;95373.88;4968200;28;20065;-65
2022/09/25 03:41:08;;;;;;;3.47;1.65;;;;;;;11.15;100.00;95376.63;4968960;28;20031;-65
2022/09/25 03:43:37;;;;;;;1.52;1.33;;;;;;;11.13;100.00;95374.16;4965456;28;20064;-65
2022/09/25 03:46:05;;;;;;;3.92;1.60;;;;;;;11.19;100.00;95377.97;4970115;28;20502;-65
2022/09/25 03:48:31;;;;;;;6.00;1.85;;;;;;;11.22;100.00;95382.94;4951052;28;20104;-65
2022/09/25 03:50:56;;;;;;;1.58;1.50;;;;;;;11.23;100.00;95381.16;4970729;28;20057;-65
2022/09/25 03:53:24;;;;;;;1.60;1.50;;;;;;;11.30;100.00;95374.28;4969085;28;20018;-66
2022/09/25 03:55:50;;;;;;;5.85;1.50;;;;;;;11.54;100.00;95372.78;4967262;28;20034;-65
2022/09/25 03:58:16;;;;;;;1.38;1.38;;;;;;;11.50;100.00;95374.91;4961982;28;20026;-65
2022/09/25 04:00:43;;;;;;;1.70;1.60;;;;;;;11.29;100.00;95362.06;4966499;28;20046;-65
2022/09/25 04:03:08;;;;;;;3.80;1.40;;;;;;;11.24;100.00;95359.91;4965924;28;20110;-64
2022/09/25 04:05:34;;;;;;;2.03;1.80;;;;;;;11.21;100.00;95359.41;4969885;28;20161;-65
2022/09/25 04:08:00;;;;;;;3.25;1.67;;;;;;;11.18;100.00;95356.09;4965144;28;20030;-65
2022/09/25 04:10:26;;;;;;;7.53;1.80;;;;;;;11.16;100.00;95355.41;4970093;28;20034;-65
2022/09/25 04:12:54;;;;;;;2.70;2.00;;;;;;;11.13;100.00;95355.69;4969444;28;20480;-66
2022/09/25 04:15:23;;;;;;;1.77;1.67;;;;;;;11.13;100.00;95368.88;4968710;28;20035;-68
2022/09/25 04:17:50;;;;;;;1.63;1.50;;;;;;;11.11;100.00;95370.03;4966229;28;20408;-69
2022/09/25 04:20:15;;;;;;;2.75;1.65;;;;;;;11.09;100.00;95367.53;4970527;28;20103;-68
2022/09/25 04:22:41;;;;;;;3.17;1.20;;;;;;;11.06;100.00;95364.41;4969785;28;20058;-68
2022/09/25 04:25:08;;;;;;;1.80;1.50;;;;;;;11.07;100.00;95358.16;4965915;28;20015;-69
2022/09/25 04:27:35;;;;;;;3.53;1.50;;;;;;;11.08;100.00;95363.25;4969187;28;20023;-69
2022/09/25 04:30:01;;;;;;;3.00;1.65;;;;;;;11.10;100.00;95363.09;4969266;28;20018;-66
2022/09/25 04:35:10;;;;;;;1.70;1.60;;;;;;;11.18;100.00;95361.38;4969182;28;20523;-61
2022/09/25 04:37:36;;;;;;;1.73;1.48;;;;;;;11.18;100.00;95360.53;4968775;28;20023;-61
2022/09/25 04:40:01;;;;;;;2.42;1.60;;;;;;;11.21;100.00;95354.13;4969618;28;20035;-60
2022/09/25 04:42:26;;;;;;;3.28;1.90;;;;;;;11.20;100.00;95352.47;4965297;28;20030;-60
2022/09/25 04:44:56;;;;;;;8.68;2.25;;;;;;;11.20;100.00;95341.94;4960613;28;20046;-60
2022/09/25 04:47:23;;;;;;;2.90;2.65;;;;;;;11.22;100.00;95342.59;4956560;28;20041;-60
2022/09/25 04:49:48;;;;;;;2.60;1.60;;;;;;;11.19;100.00;95346.38;4961279;28;20051;-66
2022/09/25 04:52:16;;;;;;;1.40;1.40;;;;;;;11.17;100.00;95351.81;4964589;28;20519;-65
2022/09/25 04:54:42;;;;;;;1.65;1.55;;;;;;;11.14;100.00;95349.44;4968219;28;20030;-68
2022/09/25 04:57:19;;;;;;;2.05;1.35;;;;;;;11.13;100.00;95349.63;4964227;28;20094;-68
2022/09/25 04:59:44;;;;;;;3.08;1.65;;;;;;;11.17;100.00;95349.16;4960100;28;20030;-69
2022/09/25 05:02:11;;;;;;;1.83;1.73;;;;;;;11.21;100.00;95346.22;4968845;28;20034;-69
2022/09/25 05:04:36;;;;;;;2.20;2.10;;;;;;;11.23;100.00;95349.53;4968622;28;20070;-69
2022/09/25 05:07:02;;;;;;;2.10;1.70;;;;;;;11.24;100.00;95353.81;4963972;28;20027;-69
2022/09/25 05:09:27;;;;;;;1.98;1.75;;;;;;;11.24;100.00;95359.09;4963562;28;20039;-59
2022/09/25 05:11:53;;;;;;;2.70;1.88;;;;;;;11.22;100.00;95356.59;4967520;28;20589;-61
2022/09/25 05:14:18;;;;;;;3.00;1.90;;;;;;;11.22;100.00;95355.78;4968503;28;20035;-59
2022/09/25 05:16:46;;;;;;;2.20;2.00;;;;;;;11.17;100.00;95361.50;4970823;28;20050;-59
2022/09/25 05:19:12;;;;;;;2.00;1.90;;;;;;;11.18;100.00;95371.06;4953574;28;20022;-58
2022/09/25 05:21:38;;;;;;;2.17;2.08;;;;;;;11.19;100.00;95372.72;4970532;28;20725;-58
2022/09/25 05:24:04;;;;;;;2.22;2.08;;;;;;;11.16;100.00;95365.97;4970824;28;20027;-59
2022/09/25 05:26:29;;;;;;;3.92;2.25;;;;;;;11.17;100.00;95380.78;4969670;28;20019;-58
2022/09/25 05:28:55;;;;;;;3.90;2.28;;;;;;;11.17;100.00;95378.16;4970684;28;20034;-62
2022/09/25 05:31:20;;;;;;;3.00;2.03;;;;;;;11.18;100.00;95378.97;4970540;28;20539;-66
2022/09/25 05:33:47;;;;;;;3.05;1.70;;;;;;;11.21;100.00;95375.22;4970388;28;20460;-60
2022/09/25 05:36:12;;;;;;;1.98;1.88;;;;;;;11.25;100.00;95373.91;4970469;28;20089;-60
2022/09/25 05:38:39;;;;;;;2.05;1.92;;;;;;;11.25;100.00;95371.28;4969792;28;20732;-61
2022/09/25 05:41:06;;;;;;;1.65;1.52;;;;;;;11.22;100.00;95377.66;4970238;28;20579;-60
2022/09/25 05:43:33;;;;;;;3.85;1.52;;;;;;;11.21;100.00;95381.28;4969858;28;20030;-60
2022/09/25 05:45:59;;;;;;;1.83;1.73;;;;;;;11.24;100.00;95385.44;4969760;28;20027;-60
2022/09/25 05:48:25;;;;;;;6.15;1.63;;;;;;;11.23;100.00;95386.41;4969772;28;20214;-64
2022/09/25 05:50:54;;;;;;;4.20;2.67;;;;;;;11.25;100.00;95382.63;4969778;28;20050;-61
2022/09/25 05:53:20;;;;;;;2.10;1.90;;;;;;;11.25;100.00;95380.00;4969693;28;20035;-61
2022/09/25 05:55:56;;;;;;;1.83;1.73;;;;;;;11.26;100.00;95384.28;4969677;28;20463;-62
2022/09/25 05:58:22;;;;;;;2.17;1.65;;;;;;;11.26;100.00;95386.09;4969793;28;20113;-62
2022/09/25 06:00:49;;;;;;;5.13;2.28;;;;;;;11.24;100.00;95383.59;4969593;28;20034;-62
2022/09/25 06:03:15;;;;;;;1.73;1.63;;;;;;;11.20;100.00;95387.53;4970427;28;20492;-62
2022/09/25 06:05:40;;;;;;;2.03;1.92;;;;;;;11.15;100.00;95387.19;4973741;28;20033;-63
2022/09/25 06:08:06;;;;;;;2.20;2.00;;;;;;;11.11;100.00;95384.00;4971164;28;20031;-61
2022/09/25 06:10:32;;;;;;;2.60;2.17;;;;;;;11.13;100.00;95389.94;4974592;28;20025;-62
2022/09/25 06:13:01;;;;;;;1.50;1.40;;;;;;;11.14;100.00;95385.53;4973875;28;20117;-62
2022/09/25 06:15:28;;;;;;;1.73;1.65;;;;;;;11.18;100.00;95382.44;4974405;28;20074;-62
2022/09/25 06:17:57;;;;;;;1.50;1.48;;;;;;;11.18;100.00;95373.69;4973424;28;20041;-62
2022/09/25 06:20:23;;;;;;;1.70;1.60;;;;;;;11.14;100.00;95374.97;4971473;28;20026;-62
2022/09/25 06:22:56;;;;;;;1.50;1.40;;;;;;;11.10;100.00;95376.28;4972665;28;20061;-62
2022/09/25 06:25:24;;;;;;;1.58;1.48;;;;;;;11.11;100.00;95377.94;4973287;28;20105;-62
2022/09/25 06:28:00;;;;;;;1.10;1.10;;;;;;;11.07;100.00;95376.59;4973985;28;20062;-59
2022/09/25 06:30:32;;;;;;;5.60;1.70;;;;;;;11.03;100.00;95379.50;4970719;28;20031;-61
2022/09/25 06:32:59;;;;;;;1.58;1.48;;;;;;;11.04;100.00;95390.88;4963499;28;20038;-62
2022/09/25 06:35:25;;;;;;;1.45;1.45;;;;;;;11.09;100.00;95391.25;4973759;28;20034;-61
2022/09/25 06:37:51;;;;;;;1.70;1.60;;;;;;;11.12;100.00;95396.19;4972858;28;20555;-62
2022/09/25 06:40:16;;;;;;;2.33;1.35;;;;;;;11.12;100.00;95396.19;4971912;28;20026;-62
2022/09/25 06:42:42;;;;;;;1.88;1.50;;;;;;;11.15;100.00;95398.53;4972347;28;20122;-62
2022/09/25 06:45:09;;;;;;;1.60;1.48;;;;;;;11.15;100.00;95403.78;4972133;28;20042;-66
2022/09/25 06:47:35;;;;;;;1.83;1.73;;;;;;;11.18;100.00;95403.53;4971415;28;21280;-66
2022/09/25 06:50:00;;;;;;;1.75;1.65;;;;;;;11.18;100.00;95392.13;4972683;28;20047;-68
2022/09/25 06:52:25;;;;;;;1.80;1.63;;;;;;;11.14;100.00;95391.59;4972702;28;20022;-67
2022/09/25 06:54:51;;;;;;;2.10;1.90;;;;;;;11.12;100.00;95393.56;4971632;28;20019;-68
2022/09/25 06:57:16;;;;;;;3.50;1.60;;;;;;;11.12;100.00;95393.56;4972387;28;20492;-68
2022/09/25 06:59:41;;;;;;;1.98;1.58;;;;;;;11.13;100.00;95394.41;4972233;28;20037;-68
2022/09/25 07:04:52;;;;;;;1.77;1.65;;;;;;;11.16;100.00;95394.09;4972539;28;20037;-60
2022/09/25 07:07:19;;;;;;;2.50;1.70;;;;;;;11.15;100.00;95393.25;4973091;28;20031;-59
2022/09/25 07:09:48;;;;;;;2.00;1.63;;;;;;;11.17;100.00;95396.59;4973194;28;20369;-65
2022/09/25 07:12:14;;;;;;;1.50;1.40;;;;;;;11.20;100.00;95405.16;4973280;28;20042;-65
2022/09/25 07:14:41;;;;;;;1.10;1.10;;;;;;;11.21;100.00;95396.28;4971277;28;20038;-65
2022/09/25 07:17:07;;;;;;;3.15;1.55;;;;;;;11.26;100.00;95388.75;4973474;28;20027;-65
2022/09/25 07:19:32;;;;;;;1.60;1.50;;;;;;;11.25;100.00;95397.63;4972764;28;20496;-65
2022/09/25 07:21:58;;;;;;;1.67;1.58;;;;;;;11.23;100.00;95392.50;4972583;28;20027;-65
2022/09/25 07:24:24;;;;;;;1.88;1.77;;;;;;;11.25;100.00;95392.34;4972254;28;20037;-69
2022/09/25 07:26:51;;;;;;;1.48;1.48;;;;;;;11.30;100.00;95401.47;4972667;28;20035;-59
2022/09/25 07:29:17;;;;;;;2.17;1.67;;;;;;;11.39;100.00;95388.34;4969538;28;20077;-62
2022/09/25 07:31:42;;;;;;;1.50;1.45;;;;;;;11.46;100.00;95395.47;4969638;28;20054;-62
2022/09/25 07:34:08;;;;;;;1.27;1.27;;;;;;;11.47;100.00;95396.28;4970015;28;20042;-62
2022/09/25 07:36:34;;;;;;;1.65;1.55;;;;;;;11.45;100.00;95401.72;4969175;28;20389;-60
2022/09/25 07:39:00;;;;;;;1.60;1.50;;;;;;;11.45;100.00;95399.09;4971642;28;20018;-61
2022/09/25 07:41:25;;;;;;;1.50;1.40;;;;;;;11.44;100.00;95402.72;4954410;28;20054;-60
2022/09/25 07:43:52;;;;;;;3.55;1.33;;;;;;;11.40;100.00;95395.25;4971252;28;20051;-69
2022/09/25 07:46:18;;;;;;;1.63;1.20;;;;;;;11.40;100.00;95406.66;4970413;28;20586;-60
2022/09/25 07:48:43;;;;;;;3.40;1.25;;;;;;;11.40;100.00;95406.66;4970126;28;20038;-65
2022/09/25 07:51:10;;;;;;;1.60;1.50;;;;;;;11.45;100.00;95404.38;4971023;28;20419;-67
2022/09/25 07:53:37;;;;;;;1.42;1.42;;;;;;;11.41;100.00;95408.28;4970709;28;20038;-66
2022/09/25 07:56:03;;;;;;;2.03;1.45;;;;;;;11.42;100.00;95409.09;4971174;28;20038;-66
2022/09/25 07:58:29;;;;;;;4.82;1.88;;;;;;;11.40;100.00;95409.28;4971527;28;20458;-66
2022/09/25 08:00:59;;;;;;;2.15;1.98;;;;;;;11.40;100.00;95405.81;4954392;28;20113;-65
2022/09/25 08:03:25;;;;;;;6.03;2.15;;;;;;;11.40;100.00;95406.66;4970927;28;20106;-68
2022/09/25 08:06:16;;;;;;;4.07;2.30;;;;;;;11.46;100.00;95415.72;4971372;28;20105;-61
2022/09/25 08:08:43;;;;;;;2.55;2.30;;;;;;;11.39;100.00;95415.53;4965945;28;20121;-61
2022/09/25 08:11:13;;;;;;;2.22;2.10;;;;;;;11.40;100.00;95422.47;4972288;28;20023;-61
2022/09/25 08:13:40;;;;;;;2.38;2.28;;;;;;;11.39;100.00;95420.81;4972307;28;20046;-60
2022/09/25 08:16:12;;;;;;;2.90;2.03;;;;;;;11.38;100.00;95424.38;4972011;28;20026;-61
2022/09/25 08:18:45;;;;;;;2.13;2.03;;;;;;;11.35;100.00;95432.59;4964443;28;20077;-61
2022/09/25 08:21:13;;;;;;;2.72;2.50;;;;;;;11.27;100.00;95433.41;4972174;28;20030;-61
2022/09/25 08:23:39;;;;;;;6.95;3.60;;;;;;;11.27;100.00;95429.91;4972122;28;20019;-60
2022/09/25 08:26:04;;;;;;;6.43;5.70;;;;;;;11.28;100.00;95434.22;4970910;28;20539;-73
2022/09/25 08:28:30;;;;;;;6.57;5.75;;;;;;;11.27;100.00;95436.03;4971863;28;20027;-73
2022/09/25 08:30:59;;;;;;;4.78;4.38;;;;;;;11.27;100.00;95445.72;4971766;28;20030;-74
2022/09/25 08:33:24;;;;;;;2.28;2.17;;;;;;;11.28;100.00;95440.31;4953231;28;20100;-73
2022/09/25 08:35:55;;;;;;;2.90;2.70;;;;;;;11.29;100.00;95441.13;4970298;28;20047;-73
2022/09/25 08:38:23;;;;;;;2.13;2.03;;;;;;;11.33;100.00;95442.47;4969856;28;20022;-73
2022/09/25 08:41:15;;;;;;;2.45;2.35;;;;;;;11.32;100.00;95448.72;4970799;28;20065;-68
2022/09/25 08:43:49;;;;;;;3.67;3.20;;;;;;;11.32;100.00;95438.19;4969275;28;20041;-68
2022/09/25 08:49:10;;;;;;;3.42;2.53;;;;;;;11.41;100.00;95444.34;4958680;28;20097;-55
2022/09/25 08:51:43;;;;;;;1.88;1.77;;;;;;;11.38;100.00;95445.47;4970162;28;20451;-57
2022/09/25 08:54:17;;;;;;;3.00;2.80;;;;;;;11.37;100.00;95446.47;4970754;28;20065;-52
2022/09/25 08:56:43;;;;;;;2.47;2.25;;;;;;;11.37;100.00;95446.47;4970691;28;20641;-56
2022/09/25 08:59:33;;;;;;;2.83;2.63;;;;;;;11.38;100.00;95448.13;4970627;28;20039;-53
2022/09/25 09:02:11;;;;;;;2.50;2.40;;;;;;;11.38;100.00;95452.56;4958919;28;20022;-60
2022/09/25 09:04:43;;;;;;;2.72;2.53;;;;;;;11.37;100.00;95457.00;4970273;28;20030;-61
2022/09/25 09:07:41;;;;;;;3.58;1.90;;;;;;;11.31;100.00;95457.63;4971000;28;20022;-61
2022/09/25 09:10:07;;;;;;;1.70;1.60;;;;;;;11.25;100.00;95463.50;4934764;28;20246;-61
2022/09/25 09:12:42;;;;;;;2.35;2.20;;;;;;;11.22;100.00;95459.34;4971016;28;20023;-61
2022/09/25 09:15:24;;;;;;;2.67;2.42;;;;;;;11.27;100.00;95458.91;4971426;28;20038;-61
2022/09/25 09:17:51;;;;;;;2.33;2.22;;;;;;;11.33;100.00;95460.94;4970798;28;20019;-61
2022/09/25 09:20:22;;;;;;;2.65;2.45;;;;;;;11.38;100.00;95471.84;4971595;28;20038;-61
2022/09/25 09:22:51;;;;;;;2.30;2.20;;;;;;;11.41;100.00;95466.28;4970758;28;20074;-56
2022/09/25 09:25:16;;;;;;;2.58;2.10;;;;;;;11.43;100.00;95463.47;4971149;28;20450;-60
2022/09/25 09:28:16;;;;;;;2.75;2.13;;;;;;;11.41;100.00;95463.66;4970686;28;20018;-61
2022/09/25 09:30:48;;;;;;;2.00;1.90;;;;;;;11.43;100.00;95464.31;4970731;28;20409;-61
2022/09/25 09:33:33;;;;;;;2.90;1.90;;;;;;;11.50;100.00;95466.34;4971222;28;20173;-61
2022/09/25 09:36:07;;;;;;;2.50;1.83;;;;;;;11.53;100.00;95458.13;4970551;28;20157;-60
2022/09/25 09:39:08;;;;;;;2.00;1.90;;;;;;;11.55;100.00;95464.06;4969594;28;20050;-61
2022/09/25 09:42:16;;;;;;;3.88;1.48;;;;;;;11.58;100.00;95472.50;4925680;28;20118;-61
2022/09/25 09:44:57;;;;;;;2.05;1.95;;;;;;;11.55;100.00;95462.28;4907390;29;20163;-61
2022/09/25 09:47:32;;;;;;;2.45;1.58;;;;;;;11.57;100.00;95468.22;4957651;28;20118;-61
2022/09/25 09:50:19;;;;;;;2.08;1.98;;;;;;;11.65;100.00;95472.72;4969402;28;20051;-61
2022/09/25 09:52:50;;;;;;;2.20;2.05;;;;;;;11.67;100.00;95470.75;4970279;28;20528;-61
2022/09/25 09:55:24;;;;;;;2.60;2.40;;;;;;;11.69;100.00;95466.16;4970174;28;20027;-61
2022/09/25 09:57:53;;;;;;;3.05;2.47;;;;;;;11.79;100.00;95466.06;4970135;28;20030;-61
2022/09/25 10:00:21;;;;;;;4.85;3.00;;;;;;;11.85;100.00;95464.63;4958039;28;20033;-61
2022/09/25 10:02:49;;;;;;;2.83;2.45;;;;;;;11.89;100.00;95468.59;4969725;28;20039;-54
2022/09/25 10:05:48;;;;;;;2.13;2.03;;;;;;;11.91;100.00;95471.91;4970112;28;20046;-56
2022/09/25 10:08:15;;;;;;;2.15;2.05;;;;;;;11.94;100.00;95471.59;4955145;28;20038;-54
2022/09/25 10:10:42;;;;;;;2.33;2.13;;;;;;;12.08;100.00;95466.75;4970242;28;20067;-56
2022/09/25 10:13:19;;;;;;;3.20;1.95;;;;;;;12.20;100.00;95465.47;4970090;28;20034;-57
2022/09/25 10:15:58;;;;;;;3.63;2.10;;;;;;;12.29;100.00;95466.34;4970203;28;20165;-56
2022/09/25 10:18:30;;;;;;;3.72;2.00;;;;;;;12.34;100.00;95464.06;4970719;28;20451;-76
2022/09/25 10:21:17;;;;;;;2.20;2.10;;;;;;;12.28;100.00;95468.19;4970481;28;20022;-75
2022/09/25 10:23:45;;;;;;;1.90;1.80;;;;;;;12.23;100.00;95470.44;4966799;28;20035;-75
2022/09/25 10:26:34;;;;;;;1.95;1.77;;;;;;;12.24;100.00;95480.00;4967190;28;20073;-75
2022/09/25 10:29:09;;;;;;;1.98;1.88;;;;;;;12.20;100.00;95480.50;4964916;28;20058;-69
2022/09/25 10:31:38;;;;;;;2.10;2.00;;;;;;;12.19;100.00;95479.66;4967541;28;20476;-77
2022/09/25 10:34:11;;;;;;;2.10;2.00;;;;;;;12.18;100.00;95485.91;4968404;28;20062;-73
2022/09/25 10:36:42;;;;;;;1.70;1.67;;;;;;;12.27;100.00;95497.34;4968530;28;20458;-74
2022/09/25 10:39:22;;;;;;;1.70;1.60;;;;;;;12.31;100.00;95488.97;4967980;28;20027;-69
2022/09/25 10:41:48;;;;;;;1.40;1.30;;;;;;;12.21;100.00;95493.53;4966314;28;20551;-63
2022/09/25 10:44:34;;;;;;;1.70;1.60;;;;;;;12.10;100.00;95497.25;4968786;28;20019;-61
2022/09/25 10:50:13;;;;;;;1.67;1.60;;;;;;;12.08;100.00;95493.94;4966617;28;20058;-61
2022/09/25 10:52:58;;;;;;;1.52;1.52;;;;;;;12.06;100.00;95495.91;4966578;28;20027;-61
2022/09/25 10:55:30;;;;;;;2.63;1.90;;;;;;;12.07;100.00;95497.56;4972340;28;20507;-61
2022/09/25 10:58:13;;;;;;;1.75;1.65;;;;;;;12.07;100.00;95492.28;4972776;28;20035;-60
2022/09/25 11:00:45;;;;;;;1.67;1.60;;;;;;;12.10;100.00;95491.16;4962785;28;20038;-61
2022/09/25 11:03:22;;;;;;;2.97;1.92;;;;;;;12.12;100.00;95499.75;4972040;28;20034;-60
2022/09/25 11:06:13;;;;;;;1.98;1.88;;;;;;;12.19;100.00;95500.78;4972945;28;20042;-61
2022/09/25 11:08:40;;;;;;;2.53;2.38;;;;;;;12.24;100.00;95492.41;4962134;28;20038;-62
2022/09/25 11:11:08;;;;;;;2.72;2.53;;;;;;;12.27;100.00;95507.91;4972163;28;20089;-62
2022/09/25 11:13:54;;;;;;;2.30;2.20;;;;;;;12.24;100.00;95509.03;4971559;28;20027;-61
2022/09/25 11:16:20;;;;;;;2.33;2.22;;;;;;;12.23;100.00;95502.09;4971598;28;20484;-66
2022/09/25 11:18:49;;;;;;;3.05;2.20;;;;;;;12.25;100.00;95500.13;4966371;28;20034;-79
2022/09/25 11:21:17;;;;;;;2.47;2.25;;;;;;;12.17;100.00;95503.59;4968810;28;20041;-81
2022/09/25 11:23:56;;;;;;;2.15;2.05;;;;;;;12.19;100.00;95506.06;4965275;28;20042;-76
2022/09/25 11:26:30;;;;;;;2.40;2.30;;;;;;;12.26;100.00;95501.78;4969020;28;20041;-80
2022/09/25 11:29:29;;;;;;;2.60;2.20;;;;;;;12.33;100.00;95499.34;4969089;28;20049;-74
2022/09/25 11:32:46;;;;;;;1.85;1.75;;;;;;;12.45;100.00;95498.09;4964702;28;20065;-75
2022/09/25 11:35:18;;;;;;;1.85;1.75;;;;;;;12.60;100.00;95500.97;4928069;28;20231;-61
2022/09/25 11:38:02;;;;;;;2.22;2.13;;;;;;;12.83;100.00;95499.56;4967020;28;20027;-56
2022/09/25 11:43:45;;;;;;;2.00;1.90;;;;;;;12.93;100.00;95496.75;4968059;28;20049;-68
2022/09/25 11:46:26;;;;;;;;;;;;;;;12.87;100.00;95493.78;4950338;28;20078;-68
2022/09/25 11:49:02;;;;;;;2.05;1.92;;;;;;;12.94;100.00;95486.03;4960273;28;20287;-67
2022/09/25 11:51:59;;;;;;;1.70;1.60;;;;;;;12.99;100.00;95473.16;4959629;28;20166;-65
2022/09/25 11:54:34;;;;;;;2.25;1.75;;;;;;;12.92;100.00;95472.16;4960416;28;20085;-67
2022/09/25 11:57:08;;;;;;;1.63;1.50;;;;;;;12.96;100.00;95475.31;4962764;28;20485;-60
2022/09/25 12:00:11;;;;;;;2.03;1.88;;;;;;;12.98;100.00;95478.63;4963727;28;20030;-62
2022/09/25 12:02:44;;;;;;;1.40;1.30;;;;;;;12.99;100.00;95480.28;4902037;28;20031;-64
2022/09/25 12:05:13;;;;;;;1.33;1.27;;;;;;;13.11;100.00;95473.69;4963831;28;20537;-63